UKLU

Uzhhorod International Airport

Uzhhorod, Ukraine
TAF UKLU 210802Z 2109/2118 14003MPS 9999 NSC TX30/2113Z TN22/2118Z TEMPO 2109/2115 18005MPS -TSRA SCT030CB BKN040
Issued Valid From Valid To
Jun-21 @ 08:02 UTC
(2 hours ago)
Jun-21 @ 09:00 UTC
(an hour ago)
Jun-21 @ 18:00 UTC
(in 8 hours)
Jun-21 @ 09:00 to Jun-21 @ 18:00
TAF UKLU 210802Z 2109/2118 14003MPS 9999 NSC TX30/2113Z TN22/2118Z
Wind Visibility Clouds
140° at 6 knots 10,000+ meters
  • No significant clouds
Temporary Jun-21 @ 09:00 to Jun-21 @ 15:00
TEMPO 2109/2115 18005MPS -TSRA SCT030CB BKN040
Wind Clouds Conditions
180° at 10 knots
  • Scattered at 3,000' AGL
  • Broken at 4,000' AGL
  • Light Thunderstorm
  • Light Rain
TAF UKLU 210802Z 2109/2118 14003MPS 9999 NSC TX30/2113Z TN22/2118Z TEMPO 2109/2115 18005MPS -TSRA SCT030CB BKN040
Issued Jun-21 @ 08:02 UTC
(2 hours ago)
Valid From Jun-21 @ 09:00 UTC
(an hour ago)
Valid To Jun-21 @ 18:00 UTC
(in 8 hours)
Jun-21 @ 09:00 - Jun-21 @ 18:00
Wind Visibility
140° at 6 knots 10,000+ meters
Clouds
  • No significant clouds
Temporary Jun-21 @ 09:00 - Jun-21 @ 15:00
Wind
180° at 10 knots
Clouds
  • Scattered at 3,000' AGL
  • Broken at 4,000' AGL
Conditions
  • Light Thunderstorm
  • Light Rain